sim
Sign-in with your pilot id or email,
or register
Callsign
Passwort

Schedule Details

Flight Number: OEO7872
Departure: Dusseldorf International Airport (EDDL) at 07:20
Arrival: Fuerteventura Airport (GCFV) at 12:20

Weather Information
Getting current METAR information for EDDL 211550Z 23007KT 9999 BKN039 12/06 Q1027 NOSIG
Getting current METAR information for GCFV 211530Z 07005KT 020V110 CAVOK 20/14 Q1020

Schedule Frequency

Route Map